Terminal Aerodrome Forecast
Issued by NWS

Home | Current Version | Previous Version | Text Only | Print | Product List | Glossary On
Versions: 1 2 3 4 5 6 7 8 9 10 11 12 13 14
000
FTUS46 KPDT 260412 AAA
TAFDLS
TAF AMD
KDLS 260412Z 2604/2624 30008KT P6SM SCT150 BKN200
     FM260900 30010KT P6SM BKN150
     FM261400 31016G24KT P6SM SCT150
     FM261800 32022G30KT P6SM SCT100 BKN120=

USA.gov is the U.S. government's official web portal to all federal, state and local government web resources and services.